Weather at Rongelap Island Airport

Public forecast

Using degrees Celsius for public forecast. Weather courtesy of forecast.io.

Closest aviation weather report (METAR) to Rongelap Island Airport

Closest report is Bucholz Army Air Field, 154.6 nm (286.4 km) SSE.

2024/05/26 12:40 (retrieved 10 minutes ago)

PKWA 261240Z AUTO 07015KT 10SM CLR 28/25 A2987 RMK AO2 T02820251

Closest aviation forecast (TAF) to Rongelap Island Airport

Closest forecast is Bucholz Army Air Field, 154.6 nm (286.4 km) SSE.

2024/05/26 12:30 (retrieved 20 minutes ago)

TAF PKWA 261124Z 2612/2712 07015KT P6SM VCSH SCT018 SCT050